Flight Track Log - Related Links

Times and Time Zones

All times are in EST time to prevent confusion due to time zone crossing. See the N99AT flight status page for this flight to view local times or setup timezone preferences in your user account.

Time Position Orientation Groundspeed Altitude Reporting Facility
EST Latitude Longitude Course Direction KTS MPH feet Rate Location/Type
Tue 07:30:41 PM 28.5500 -81.3167 72° East 172 198 1,200  Level Orlando TRACON
Tue 07:31:41 PM 28.6000 -81.2833 30° Northeast 208 239 1,800 650 Climbing Orlando TRACON
Tue 07:32:41 PM 28.6500 -81.3167 330° Northwest 245 282 2,500 800 Climbing Orlando TRACON
Tue 07:33:41 PM 28.6500 -81.3833 270° West 261 300 3,400 2,750 Climbing Orlando TRACON
Tue 07:34:41 PM 28.6333 -81.4833 259° West 298 343 8,000 4,200 Climbing Orlando TRACON
Tue 07:35:41 PM 28.5667 -81.5333 213° Southwest 287 330 11,800 2,950 Climbing Orlando TRACON
Tue 07:36:41 PM 28.4833 -81.5167 170° South 321 369 13,900 1,091 Climbing Orlando TRACON
Tue 07:37:42 PM 28.3833 -81.5000 172° South 404 465 14,000 50 Climbing Orlando TRACON
Tue 07:38:42 PM 28.2833 -81.5333 196° South 387 445 14,000  Level Orlando TRACON
Tue 07:40:39 PM 28.0839 -81.6219 201° Southwest 399 459 14,000 34 Level Miami Center
Tue 07:41:39 PM 27.9919 -81.6911 214° Southwest 399 459 14,100 50 Climbing Miami Center
Tue 07:42:39 PM 27.9019 -81.7600 214° Southwest 399 459 14,100  Level Miami Center
Tue 07:43:39 PM 27.8097 -81.8311 214° Southwest 399 459 14,100  Level Miami Center
Tue 07:44:39 PM 27.7139 -81.8856 207° Southwest 404 465 14,100  Level Miami Center
Tue 07:45:39 PM 27.6164 -81.8742 174° South 382 440 14,100  Level Miami Center
Tue 07:46:39 PM 27.5061 -81.8647 176° South 382 440 14,100  Level Miami Center
Tue 07:47:39 PM 27.3958 -81.8528 175° South 389 448 14,100  Level Miami Center
Tue 07:48:39 PM 27.2900 -81.8389 173° South 394 453 14,100 -50 Level Miami Center
Tue 07:49:39 PM 27.1936 -81.7858 154° Southeast 380 437 14,000 -1,000 Descending Miami Center
Tue 07:50:39 PM 27.0897 -81.7697 172° South 380 437 12,100 -1,500 Descending Miami Center
Tue 07:51:39 PM 26.9936 -81.7728 182° South 361 415 11,000 -850 Descending Miami Center
Tue 07:52:39 PM 26.9019 -81.7711 179° South 338 389 10,400 -1,650 Descending Miami Center
Tue 07:53:39 PM 26.8100 -81.7719 180° South 310 357 7,700 -1,700 Descending Miami Center
Tue 07:54:39 PM 26.7389 -81.7736 181° South 296 341 7,000 -350 Descending Miami Center
Tue 07:55:39 PM 26.6594 -81.7750 181° South 291 335 7,000 -300 Level Miami Center
Tue 07:56:39 PM 26.5803 -81.7761 181° South 291 335 6,400 -1,000 Descending Miami Center
Tue 07:57:39 PM 26.5050 -81.7778 181° South 291 335 5,000 -1,100 Descending Miami Center
Tue 07:58:39 PM 26.4258 -81.7744 178° South 274 315 4,200 -800 Descending Miami Center
Tue 08:00:00 PM 26.3241 -81.7362 161° South  Level FlightAware Approximate
Tue 08:07:00 PM 26.1500 -81.7667 246° West  Level FlightAware Approximate
Tue 08:08:00 PM 26.1524 -81.7756 246° West  Level Estimated
Tue 08:09:00 PM 26.1524 -81.7756 246° West  Level Estimated
Tue 08:10:00 PM 26.1524 -81.7756 246° West  Level Estimated
Tue 08:11:00 PM 26.1524 -81.7756 246° West  Level Estimated
Tue 08:12:00 PM 26.1524 -81.7756 246° West  Level Estimated
Tue 08:13:00 PM 26.1524 -81.7756 246° West  Level Estimated

Login

Don't have an account? Register now (free) for customized features, flight alerts, and more!